Domov               UVHVVR             MKGP            O straneh              
ZDRAVSTVENO VARSTVO RASTLIN
  MREŽA AGROMET. POSTAJ
 ► PROGNOSTIČNA OBVESTILA
AGROMETEOROLOŠKI PODATKI -
ARSO
OBVLADOVANJE TVEGANJ ZARADI
NEUGODNIH VREMENSKIH RAZMER
  ► NARAVNE NESREČE
  ► SUŠA/MOČA
  ► NAMAKANJE
  ► ŽLED (gozdarstvo)
KARTOGRAFSKI PRIKAZI
SPLETNE POVEZAVE
PROJEKTI IN PUBLIKACIJE

AGROMETEOROLOŠKA MREŽA: VREMENSKE POSTAJE IN FENOLOŠKA OPAZOVANJA

Pregled podatkov za lokacijo Dragonja, meteorološka postaja 42389

Pregled senzorjev na lokaciji

ID Ime Zadnja
vrednost
Datum
zadnje
spremembe
Tip
senzorja
2098 Padavine (mm) 0 mm 20.6.2018 16:00 Rain-O-Matic
2096 Relativna vlaga 2 m (% RH) 32,82 % RH 20.6.2018 16:00 50YA
2095 Temperatura 2 m (°C) 31,19 °C 20.6.2018 16:00 50YA

Pregled podatkov zadnjih 24 ur

Zap.
št.
Datum in čas Dragonja
Padavine Relativna
vlaga
2
m
Temperatura
2
m
1 20.6.2018 16:30
2 20.6.2018 16:00
3 20.6.2018 15:30
4 20.6.2018 15:00 0 32,8 31,2
5 20.6.2018 14:30 0 33,7 31,7
6 20.6.2018 14:00 0 31 32,3
7 20.6.2018 13:30 0 31,3 32,8
8 20.6.2018 13:00 0 31,3 32,5
9 20.6.2018 12:30 0 31,5 32,2
10 20.6.2018 12:00 0 32,4 31,7
11 20.6.2018 11:30 0 32,3 31,5
12 20.6.2018 11:00 0 32,1 31,1
13 20.6.2018 10:30 0 32,6 30,5
14 20.6.2018 10:00 0 34,1 30,4
15 20.6.2018 09:30 0 35,1 29,7
16 20.6.2018 09:00 0 35,9 29,1
17 20.6.2018 08:30 0 39,2 28,2
18 20.6.2018 08:00 0 47 26,8
19 20.6.2018 07:30 0 55,8 24,7
20 20.6.2018 07:00 0 59,8 22,8
21 20.6.2018 06:30 0 64,7 20,8
22 20.6.2018 06:00 0 73,3 18,1
23 20.6.2018 05:30 0 84,1 15,1
24 20.6.2018 05:00 0 84,3 14,9
25 20.6.2018 04:30 0 85 14,7
26 20.6.2018 04:00 0 85,1 14,7
27 20.6.2018 03:30 0 83,4 15,1
28 20.6.2018 03:00 0 82,4 15,4
29 20.6.2018 02:30 0 83 15,3
30 20.6.2018 02:00 0 79 16
31 20.6.2018 01:30 0 77,6 16,3
32 20.6.2018 01:00 0 77,5 16,5
33 20.6.2018 00:30 0 78,4 16,5
34 20.6.2018 00:00 0 78,8 16,7
35 19.6.2018 23:30 0 78,4 17
36 19.6.2018 23:00 0 75,5 17,7
37 19.6.2018 22:30 0 74,6 18,3
38 19.6.2018 22:00 0 68,9 19,5
39 19.6.2018 21:30 0 67,3 20,2
40 19.6.2018 21:00 0 65,7 20,7
41 19.6.2018 20:30 0 61,5 22
42 19.6.2018 20:00 0 53,1 24,1
43 19.6.2018 19:30 0 39,8 27,4
44 19.6.2018 19:00 0 32,5 28,9
45 19.6.2018 18:30 0 30,7 30,1
46 19.6.2018 18:00 0 30,9 30,5
47 19.6.2018 17:30 0 32,5 30,5
48 19.6.2018 17:00 0 29,3 31,2
© 2011 Ministrstvo za kmetijstvo, gozdarstvo in prehrano. Vse pravice pridržane.